createdAt,value
2022-09-01T00:00:15.230Z,100506.41
2022-09-01T00:02:44.838Z,100505.84
2022-09-01T00:05:13.067Z,100505.06
2022-09-01T00:07:41.086Z,100513.00
2022-09-01T00:10:10.800Z,100515.25
2022-09-01T00:12:39.718Z,100520.53
2022-09-01T00:15:10.471Z,100505.50
2022-09-01T00:17:38.360Z,100509.13
2022-09-01T00:20:07.165Z,100504.28
2022-09-01T00:22:35.041Z,100503.88
2022-09-01T00:25:03.849Z,100510.16
2022-09-01T00:27:32.003Z,100502.22
2022-09-01T00:30:00.358Z,100497.44
2022-09-01T00:32:28.993Z,100499.69
2022-09-01T00:34:56.903Z,100495.22
2022-09-01T00:37:24.763Z,100498.22
2022-09-01T00:39:52.805Z,100502.59
2022-09-01T00:42:21.055Z,100502.16
2022-09-01T00:44:49.607Z,100500.97
2022-09-01T00:47:19.239Z,100496.69
2022-09-01T00:49:49.898Z,100491.13
2022-09-01T00:52:51.798Z,100494.16
2022-09-01T00:55:27.205Z,100496.91
2022-09-01T00:57:56.211Z,100500.13
2022-09-01T01:00:27.333Z,100506.88
2022-09-01T01:02:58.268Z,100507.97
2022-09-01T01:05:34.283Z,100496.25
2022-09-01T01:08:03.629Z,100497.09
2022-09-01T01:10:36.101Z,100501.56
2022-09-01T01:13:14.155Z,100508.53
2022-09-01T01:15:44.062Z,100507.13
2022-09-01T01:18:16.080Z,100499.78
2022-09-01T01:21:23.137Z,100501.38
2022-09-01T01:24:01.342Z,100505.81
2022-09-01T01:26:29.326Z,100507.75
2022-09-01T01:28:57.266Z,100506.25
2022-09-01T01:31:25.824Z,100508.81
2022-09-01T01:33:56.898Z,100511.31
2022-09-01T01:36:32.654Z,100515.06
2022-09-01T01:39:10.451Z,100506.56
2022-09-01T01:41:45.534Z,100513.44
2022-09-01T01:44:16.225Z,100506.94
2022-09-01T01:46:50.449Z,100508.81
2022-09-01T01:49:21.964Z,100512.75
2022-09-01T01:51:56.484Z,100502.69
2022-09-01T01:54:32.601Z,100510.53
2022-09-01T01:57:04.635Z,100510.47
2022-09-01T01:59:34.064Z,100511.41
2022-09-01T02:02:08.847Z,100503.13
2022-09-01T02:04:36.823Z,100502.38
2022-09-01T02:07:12.785Z,100505.63
2022-09-01T02:09:44.329Z,100508.00
2022-09-01T02:12:12.241Z,100517.75
2022-09-01T02:14:43.922Z,100507.41
2022-09-01T02:17:11.886Z,100510.34
2022-09-01T02:19:43.386Z,100503.69
2022-09-01T02:22:11.616Z,100504.28
2022-09-01T02:24:46.620Z,100503.00
2022-09-01T02:27:15.915Z,100503.38
2022-09-01T02:29:44.403Z,100500.97
2022-09-01T02:32:12.210Z,100493.56
2022-09-01T02:34:40.523Z,100497.75
2022-09-01T02:37:08.387Z,100499.88
2022-09-01T02:39:36.227Z,100500.31
2022-09-01T02:42:04.495Z,100499.13
2022-09-01T02:44:32.888Z,100495.81
2022-09-01T02:47:02.167Z,100503.50
2022-09-01T02:49:30.345Z,100507.09
2022-09-01T02:52:01.834Z,100504.88
2022-09-01T02:54:32.792Z,100497.75
2022-09-01T02:57:01.320Z,100506.94
2022-09-01T02:59:30.721Z,100503.66
2022-09-01T03:02:01.084Z,100496.19
2022-09-01T03:04:30.046Z,100496.16
2022-09-01T03:06:59.381Z,100488.69
2022-09-01T03:09:28.231Z,100480.66
2022-09-01T03:11:56.820Z,100489.94
2022-09-01T03:14:26.084Z,100492.63
2022-09-01T03:16:55.056Z,100482.66
2022-09-01T03:19:23.434Z,100488.50
2022-09-01T03:21:51.310Z,100485.38
2022-09-01T03:24:23.306Z,100483.00
2022-09-01T03:26:52.667Z,100483.81
2022-09-01T03:29:21.005Z,100488.50
2022-09-01T03:31:49.627Z,100482.78
2022-09-01T03:34:23.741Z,100471.59
2022-09-01T03:36:54.521Z,100475.44
2022-09-01T03:39:29.934Z,100476.38
2022-09-01T03:41:59.065Z,100483.81
2022-09-01T03:44:27.782Z,100482.91
2022-09-01T03:46:58.590Z,100482.91
2022-09-01T03:49:27.965Z,100483.78
2022-09-01T03:51:58.497Z,100476.59
2022-09-01T03:54:30.635Z,100486.25
2022-09-01T03:57:00.077Z,100481.50
2022-09-01T03:59:30.094Z,100472.31
2022-09-01T04:02:00.324Z,100478.28
2022-09-01T04:04:31.651Z,100481.50
2022-09-01T04:07:03.122Z,100485.81
2022-09-01T04:09:34.005Z,100475.81
2022-09-01T04:12:08.215Z,100486.56
2022-09-01T04:14:37.923Z,100466.19
2022-09-01T04:17:27.494Z,100475.94
2022-09-01T04:19:58.548Z,100487.53
2022-09-01T04:22:30.265Z,100475.94
2022-09-01T04:24:59.399Z,100491.41
2022-09-01T04:27:29.012Z,100493.41
2022-09-01T04:29:57.931Z,100491.13
2022-09-01T04:32:28.670Z,100491.84
2022-09-01T04:35:00.292Z,100496.94
2022-09-01T04:37:29.136Z,100492.41
2022-09-01T04:40:00.408Z,100488.38
2022-09-01T04:42:32.657Z,100481.78
2022-09-01T04:45:10.556Z,100486.47
2022-09-01T04:47:45.819Z,100467.75
2022-09-01T04:50:19.560Z,100477.09
2022-09-01T04:53:07.135Z,100477.75
2022-09-01T04:55:46.557Z,100479.53
2022-09-01T04:58:21.023Z,100477.38
2022-09-01T05:00:55.671Z,100469.00
2022-09-01T05:03:24.819Z,100471.16
2022-09-01T05:06:20.289Z,100470.06
2022-09-01T05:08:52.755Z,100469.38
2022-09-01T05:11:38.725Z,100461.59
2022-09-01T05:14:20.065Z,100464.00
2022-09-01T05:16:49.368Z,100470.84
2022-09-01T05:19:21.015Z,100464.88
2022-09-01T05:21:50.871Z,100473.75
2022-09-01T05:24:21.821Z,100474.09
2022-09-01T05:26:50.991Z,100466.06
2022-09-01T05:29:19.233Z,100472.97
2022-09-01T05:31:50.568Z,100464.97
2022-09-01T05:34:26.861Z,100464.44
2022-09-01T05:36:58.142Z,100472.31
2022-09-01T05:39:27.611Z,100465.81
2022-09-01T05:41:58.280Z,100468.63
2022-09-01T05:44:44.630Z,100473.03
2022-09-01T05:47:20.771Z,100478.13
2022-09-01T05:49:53.826Z,100469.72
2022-09-01T05:52:26.243Z,100474.13
2022-09-01T05:54:58.014Z,100481.22
2022-09-01T05:57:35.209Z,100482.91
2022-09-01T06:00:12.623Z,100482.41
2022-09-01T06:02:43.795Z,100482.97
2022-09-01T06:05:18.077Z,100492.03
2022-09-01T06:07:47.755Z,100492.56
2022-09-01T06:10:16.233Z,100504.16
2022-09-01T06:12:48.662Z,100495.50
2022-09-01T06:15:21.156Z,100505.22
2022-09-01T06:17:56.502Z,100517.94
2022-09-01T06:20:30.701Z,100513.88
2022-09-01T06:23:01.987Z,100514.88
2022-09-01T06:25:38.269Z,100514.97
2022-09-01T06:28:08.971Z,100510.72
2022-09-01T06:30:38.421Z,100511.91
2022-09-01T06:33:11.493Z,100511.47
2022-09-01T06:35:44.836Z,100519.28
2022-09-01T06:38:17.669Z,100522.00
2022-09-01T06:40:51.067Z,100529.44
2022-09-01T06:43:23.451Z,100531.34
2022-09-01T06:45:54.940Z,100541.69
2022-09-01T06:48:27.260Z,100530.44
2022-09-01T06:53:56.839Z,100546.09
2022-09-01T06:56:32.059Z,100539.31
2022-09-01T06:59:06.200Z,100545.00
2022-09-01T07:01:39.236Z,100557.56
2022-09-01T07:04:13.316Z,100562.72
2022-09-01T07:07:00.512Z,100571.56
2022-09-01T07:18:41.350Z,100579.53
2022-09-01T07:27:16.466Z,100599.09
2022-09-01T07:29:47.601Z,100595.72
2022-09-01T07:35:11.904Z,100597.94
2022-09-01T07:42:56.655Z,100579.41
2022-09-01T07:43:44.999Z,100597.44
2022-09-01T07:51:55.432Z,100594.19
2022-09-01T07:54:24.977Z,100595.81
2022-09-01T07:57:07.057Z,100588.63
2022-09-01T07:59:39.335Z,100592.13
2022-09-01T08:02:18.483Z,100588.31
2022-09-01T08:04:49.201Z,100588.84
2022-09-01T08:07:18.940Z,100600.50
2022-09-01T08:09:46.868Z,100599.84
2022-09-01T08:12:17.028Z,100599.84
2022-09-01T08:17:58.027Z,100594.63
2022-09-01T08:20:30.597Z,100600.69
2022-09-01T08:23:10.378Z,100598.63
2022-09-01T08:25:41.012Z,100592.91
2022-09-01T08:28:09.937Z,100588.41
2022-09-01T08:30:51.995Z,100592.53
2022-09-01T08:33:23.196Z,100598.53
2022-09-01T08:35:51.418Z,100601.94
2022-09-01T08:38:20.246Z,100604.31
2022-09-01T08:40:57.161Z,100602.63
2022-09-01T08:44:03.425Z,100601.06
2022-09-01T08:46:35.493Z,100608.59
2022-09-01T08:49:27.624Z,100606.69
2022-09-01T08:52:22.031Z,100598.81
2022-09-01T08:54:54.278Z,100600.38
2022-09-01T08:57:27.778Z,100600.91
2022-09-01T09:00:26.258Z,100609.44
2022-09-01T09:03:02.822Z,100602.63
2022-09-01T09:05:43.660Z,100615.91
2022-09-01T09:08:47.043Z,100614.22
2022-09-01T09:11:42.629Z,100611.41
2022-09-01T09:14:19.781Z,100610.59
2022-09-01T09:16:51.619Z,100611.78
2022-09-01T09:19:31.785Z,100615.03
2022-09-01T09:22:04.755Z,100614.19
2022-09-01T09:24:52.881Z,100625.47
2022-09-01T09:27:21.013Z,100618.06
2022-09-01T09:29:55.202Z,100615.47
2022-09-01T09:32:51.688Z,100613.69
2022-09-01T09:35:24.500Z,100621.53
2022-09-01T09:37:53.943Z,100623.00
2022-09-01T09:40:26.111Z,100625.00
2022-09-01T09:42:57.056Z,100620.59
2022-09-01T09:45:25.090Z,100622.97
2022-09-01T09:47:55.175Z,100603.81
2022-09-01T09:50:28.963Z,100604.53
2022-09-01T09:53:17.813Z,100608.69
2022-09-01T09:55:57.601Z,100612.00
2022-09-01T09:58:34.849Z,100599.16
2022-09-01T10:01:15.453Z,100595.13
2022-09-01T10:03:54.483Z,100596.75
2022-09-01T10:06:38.504Z,100597.59
2022-09-01T10:09:09.352Z,100587.53
2022-09-01T10:11:44.427Z,100581.88
2022-09-01T10:14:48.001Z,100589.56
2022-09-01T10:17:17.804Z,100588.34
2022-09-01T10:19:56.084Z,100580.66
2022-09-01T10:22:25.831Z,100573.75
2022-09-01T10:24:53.892Z,100579.81
2022-09-01T10:27:25.836Z,100569.72
2022-09-01T10:33:07.770Z,100568.94
2022-09-01T10:35:45.458Z,100578.16
2022-09-01T10:38:22.131Z,100570.47
2022-09-01T10:41:08.727Z,100567.63
2022-09-01T10:43:45.457Z,100574.78
2022-09-01T10:46:24.714Z,100575.16
2022-09-01T10:48:57.328Z,100570.44
2022-09-01T10:51:36.195Z,100575.53
2022-09-01T10:54:06.968Z,100571.41
2022-09-01T10:56:53.582Z,100569.81
2022-09-01T10:59:33.794Z,100562.56
2022-09-01T11:02:36.941Z,100568.38
2022-09-01T11:05:03.017Z,100569.09
2022-09-01T11:10:34.459Z,100569.13
2022-09-01T11:13:23.755Z,100567.97
2022-09-01T11:15:52.032Z,100570.00
2022-09-01T11:18:29.762Z,100565.94
2022-09-01T11:21:25.730Z,100571.50
2022-09-01T11:24:31.939Z,100552.00
2022-09-01T11:26:59.875Z,100567.81
2022-09-01T11:29:55.564Z,100564.13
2022-09-01T11:32:31.936Z,100559.34
2022-09-01T11:35:03.917Z,100553.16
2022-09-01T11:37:33.575Z,100551.97
2022-09-01T11:40:08.454Z,100557.16
2022-09-01T11:42:46.869Z,100545.59
2022-09-01T11:45:21.200Z,100553.47
2022-09-01T11:47:55.339Z,100552.94
2022-09-01T11:50:28.134Z,100561.25
2022-09-01T11:53:10.924Z,100561.25
2022-09-01T11:55:50.870Z,100558.69
2022-09-01T11:58:34.569Z,100553.63
2022-09-01T12:01:32.109Z,100554.44
2022-09-01T12:04:22.470Z,100560.56
2022-09-01T12:07:04.260Z,100566.66
2022-09-01T12:09:43.582Z,100575.00
2022-09-01T12:12:29.942Z,100563.88
2022-09-01T12:15:11.674Z,100568.47
2022-09-01T12:17:46.981Z,100568.31
2022-09-01T12:20:34.881Z,100568.13
2022-09-01T12:23:03.791Z,100565.22
2022-09-01T12:25:35.757Z,100568.97
2022-09-01T12:28:06.431Z,100551.66
2022-09-01T12:30:39.630Z,100558.19
2022-09-01T12:33:26.242Z,100559.09
2022-09-01T12:36:14.918Z,100558.47
2022-09-01T12:38:43.470Z,100553.25
2022-09-01T12:41:39.055Z,100560.28
2022-09-01T12:44:57.757Z,100552.75
2022-09-01T12:47:36.404Z,100548.56
2022-09-01T12:50:07.252Z,100555.13
2022-09-01T12:52:45.662Z,100556.66
2022-09-01T12:58:22.598Z,100559.03
2022-09-01T13:01:05.753Z,100558.13
2022-09-01T13:03:37.376Z,100560.38
2022-09-01T13:06:05.539Z,100551.31
2022-09-01T13:08:36.099Z,100551.41
2022-09-01T13:11:10.994Z,100548.09
2022-09-01T13:13:39.280Z,100544.34
2022-09-01T13:16:13.714Z,100551.59
2022-09-01T13:21:36.220Z,100546.56
2022-09-01T13:24:07.218Z,100551.97
2022-09-01T13:26:35.361Z,100559.59
2022-09-01T13:29:03.382Z,100551.22
2022-09-01T13:31:32.252Z,100546.41
2022-09-01T13:34:23.270Z,100548.19
2022-09-01T13:36:52.021Z,100547.28
2022-09-01T13:39:21.453Z,100543.66
2022-09-01T13:41:49.902Z,100542.84
2022-09-01T13:44:18.715Z,100544.03
2022-09-01T13:47:28.766Z,100538.09
2022-09-01T13:49:44.105Z,100551.56
2022-09-01T13:52:13.400Z,100563.66
2022-09-01T13:54:44.883Z,100559.16
2022-09-01T13:57:14.198Z,100555.88
2022-09-01T13:59:42.336Z,100557.16
2022-09-01T14:02:11.128Z,100545.75
2022-09-01T14:04:39.310Z,100545.75
2022-09-01T14:07:07.549Z,100554.16
2022-09-01T14:09:35.475Z,100551.16
2022-09-01T14:12:05.509Z,100548.38
2022-09-01T14:17:21.768Z,100558.81
2022-09-01T14:19:51.479Z,100560.03
2022-09-01T14:22:19.721Z,100543.56
2022-09-01T14:24:47.993Z,100558.88
2022-09-01T14:27:15.853Z,100550.06
2022-09-01T14:32:10.540Z,100551.69
2022-09-01T14:34:38.490Z,100554.09
2022-09-01T14:37:07.444Z,100562.16
2022-09-01T14:39:39.175Z,100547.63
2022-09-01T14:42:11.895Z,100546.00
2022-09-01T14:44:40.153Z,100552.81
2022-09-01T14:47:12.322Z,100545.97
2022-09-01T14:49:46.990Z,100552.44
2022-09-01T14:52:18.484Z,100554.78
2022-09-01T14:54:46.875Z,100566.91
2022-09-01T14:57:37.158Z,100551.91
2022-09-01T15:00:05.951Z,100554.00
2022-09-01T15:02:34.150Z,100562.09
2022-09-01T15:05:02.506Z,100545.97
2022-09-01T15:07:30.737Z,100549.63
2022-09-01T15:09:59.927Z,100553.25
2022-09-01T15:12:31.244Z,100554.00
2022-09-01T15:15:00.671Z,100551.59
2022-09-01T15:17:29.465Z,100551.91
2022-09-01T15:20:17.491Z,100549.56
2022-09-01T15:22:45.513Z,100541.84
2022-09-01T15:25:14.237Z,100549.13
2022-09-01T15:27:43.008Z,100549.09
2022-09-01T15:30:18.309Z,100551.66
2022-09-01T15:32:49.712Z,100549.66
2022-09-01T15:35:19.249Z,100537.19
2022-09-01T15:37:48.943Z,100539.72
2022-09-01T15:40:17.402Z,100558.19
2022-09-01T15:42:47.026Z,100555.75
2022-09-01T15:45:19.826Z,100550.16
2022-09-01T15:47:50.927Z,100557.00
2022-09-01T15:50:22.507Z,100547.75
2022-09-01T15:52:55.814Z,100556.97
2022-09-01T15:55:30.347Z,100553.34
2022-09-01T15:57:59.106Z,100557.34
2022-09-01T16:00:27.943Z,100563.00
2022-09-01T16:02:57.847Z,100569.47
2022-09-01T16:05:26.996Z,100558.19
2022-09-01T16:10:24.019Z,100568.66
2022-09-01T16:12:52.802Z,100567.03
2022-09-01T16:15:23.362Z,100577.06
2022-09-01T16:18:23.518Z,100587.91
2022-09-01T16:21:18.570Z,100589.50
2022-09-01T16:23:49.827Z,100587.13
2022-09-01T16:26:20.440Z,100593.16
2022-09-01T16:28:52.006Z,100586.69
2022-09-01T16:31:25.791Z,100596.34
2022-09-01T16:34:02.131Z,100579.47
2022-09-01T16:36:41.999Z,100585.88
2022-09-01T16:39:16.817Z,100591.06
2022-09-01T16:41:50.602Z,100594.69
2022-09-01T16:44:42.654Z,100587.81
2022-09-01T16:47:41.629Z,100594.31
2022-09-01T16:50:23.699Z,100585.09
2022-09-01T16:53:22.811Z,100598.31
2022-09-01T16:56:01.277Z,100603.94
2022-09-01T16:58:55.398Z,100595.44
2022-09-01T17:02:19.070Z,100605.44
2022-09-01T17:04:52.870Z,100611.38
2022-09-01T17:07:45.750Z,100613.38
2022-09-01T17:10:31.069Z,100608.59
2022-09-01T17:13:16.062Z,100606.56
2022-09-01T17:15:50.072Z,100622.56
2022-09-01T17:18:51.353Z,100629.34
2022-09-01T17:21:23.807Z,100629.19
2022-09-01T17:24:12.517Z,100619.81
2022-09-01T17:26:41.963Z,100625.41
2022-09-01T17:29:45.356Z,100625.34
2022-09-01T17:32:51.570Z,100629.34
2022-09-01T17:35:32.889Z,100636.53
2022-09-01T17:38:20.789Z,100630.81
2022-09-01T17:40:55.909Z,100637.00
2022-09-01T17:43:29.655Z,100635.72
2022-09-01T17:46:13.951Z,100631.78
2022-09-01T17:49:10.943Z,100634.09
2022-09-01T17:51:52.667Z,100643.41
2022-09-01T17:54:32.685Z,100638.06
2022-09-01T17:57:26.621Z,100645.25
2022-09-01T18:00:26.165Z,100653.34
2022-09-01T18:03:14.974Z,100647.78
2022-09-01T18:05:46.136Z,100653.03
2022-09-01T18:08:17.048Z,100657.41
2022-09-01T18:11:01.382Z,100668.59
2022-09-01T18:13:59.771Z,100673.44
2022-09-01T18:16:48.486Z,100687.84
2022-09-01T18:19:23.359Z,100695.47
2022-09-01T18:22:03.798Z,100688.56
2022-09-01T18:24:39.503Z,100699.69
2022-09-01T18:27:09.267Z,100704.16
2022-09-01T18:29:40.006Z,100693.31
2022-09-01T18:33:05.260Z,100704.44
2022-09-01T18:35:41.318Z,100712.94
2022-09-01T18:38:27.099Z,100714.84
2022-09-01T18:41:07.293Z,100710.59
2022-09-01T18:43:41.601Z,100710.81
2022-09-01T18:46:12.466Z,100709.00
2022-09-01T18:49:01.182Z,100716.16
2022-09-01T18:51:38.131Z,100723.22
2022-09-01T18:54:08.657Z,100735.25
2022-09-01T18:56:56.526Z,100734.34
2022-09-01T18:59:53.723Z,100733.28
2022-09-01T19:02:47.171Z,100740.81
2022-09-01T19:05:33.395Z,100738.72
2022-09-01T19:08:40.529Z,100739.63
2022-09-01T19:11:26.970Z,100743.13
2022-09-01T19:14:04.655Z,100745.44
2022-09-01T19:17:11.420Z,100744.75
2022-09-01T19:19:54.212Z,100749.25
2022-09-01T19:22:33.675Z,100752.41
2022-09-01T19:25:25.551Z,100753.63
2022-09-01T19:28:25.311Z,100755.28
2022-09-01T19:31:07.260Z,100759.47
2022-09-01T19:33:40.108Z,100758.75
2022-09-01T19:36:12.171Z,100760.41
2022-09-01T19:38:40.164Z,100755.06
2022-09-01T19:41:20.086Z,100756.84
2022-09-01T19:43:56.589Z,100764.53
2022-09-01T19:47:01.530Z,100766.34
2022-09-01T19:49:30.027Z,100766.44
2022-09-01T19:52:04.839Z,100775.25
2022-09-01T19:54:53.147Z,100779.88
2022-09-01T19:57:34.061Z,100784.69
2022-09-01T20:00:13.075Z,100789.47
2022-09-01T20:02:51.530Z,100786.72
2022-09-01T20:05:27.596Z,100789.22
2022-09-01T20:08:01.744Z,100788.81
2022-09-01T20:10:56.227Z,100795.94
2022-09-01T20:13:36.958Z,100776.22
2022-09-01T20:16:41.862Z,100777.13
2022-09-01T20:19:19.018Z,100777.72
2022-09-01T20:21:48.314Z,100780.94
2022-09-01T20:24:26.880Z,100771.19
2022-09-01T20:27:03.868Z,100783.44
2022-09-01T20:29:57.225Z,100783.03
2022-09-01T20:32:51.734Z,100777.25
2022-09-01T20:35:37.639Z,100782.19
2022-09-01T20:38:44.497Z,100790.53
2022-09-01T20:41:20.709Z,100798.69
2022-09-01T20:43:52.752Z,100803.47
2022-09-01T20:46:23.798Z,100802.63
2022-09-01T20:48:52.027Z,100805.78
2022-09-01T20:51:43.946Z,100804.94
2022-09-01T20:54:11.950Z,100808.88
2022-09-01T20:57:04.026Z,100811.25
2022-09-01T20:59:53.669Z,100807.34
2022-09-01T21:02:38.452Z,100803.41
2022-09-01T21:05:10.995Z,100811.91
2022-09-01T21:08:00.970Z,100811.47
2022-09-01T21:10:47.782Z,100810.28
2022-09-01T21:13:39.228Z,100818.59
2022-09-01T21:16:18.843Z,100818.34
2022-09-01T21:19:28.080Z,100819.59
2022-09-01T21:22:08.701Z,100817.50
2022-09-01T21:24:36.651Z,100818.09
2022-09-01T21:27:08.556Z,100823.69
2022-09-01T21:29:53.076Z,100825.44
2022-09-01T21:32:22.843Z,100846.44
2022-09-01T21:34:50.971Z,100829.78
2022-09-01T21:37:19.284Z,100836.00
2022-09-01T21:39:47.255Z,100839.28
2022-09-01T21:42:15.382Z,100837.03
2022-09-01T21:44:45.151Z,100832.41
2022-09-01T21:47:13.895Z,100829.50
2022-09-01T21:49:42.132Z,100829.41
2022-09-01T21:52:10.136Z,100834.78
2022-09-01T21:54:38.212Z,100830.59
2022-09-01T21:57:06.363Z,100838.50
2022-09-01T21:59:34.243Z,100839.19
2022-09-01T22:02:02.389Z,100830.56
2022-09-01T22:04:30.234Z,100832.06
2022-09-01T22:06:58.118Z,100822.75
2022-09-01T22:09:26.092Z,100830.41
2022-09-01T22:11:53.986Z,100817.06
2022-09-01T22:14:21.943Z,100831.09
2022-09-01T22:16:50.478Z,100833.75
2022-09-01T22:19:18.267Z,100831.84
2022-09-01T22:21:48.665Z,100835.72
2022-09-01T22:24:19.476Z,100840.69
2022-09-01T22:26:48.747Z,100834.47
2022-09-01T22:29:18.446Z,100840.59
2022-09-01T22:31:46.359Z,100851.56
2022-09-01T22:34:14.159Z,100841.59
2022-09-01T22:36:45.804Z,100845.66
2022-09-01T22:39:15.122Z,100850.28
2022-09-01T22:41:43.422Z,100855.28
2022-09-01T22:44:11.657Z,100859.22
2022-09-01T22:46:40.231Z,100859.47
2022-09-01T22:49:09.966Z,100858.75
2022-09-01T22:51:40.626Z,100860.81
2022-09-01T22:54:09.740Z,100860.44
2022-09-01T22:56:40.997Z,100862.84
2022-09-01T22:59:14.059Z,100858.25
2022-09-01T23:01:45.220Z,100850.91
2022-09-01T23:04:14.765Z,100861.31
2022-09-01T23:06:46.807Z,100850.00
2022-09-01T23:09:16.142Z,100857.75
2022-09-01T23:11:44.835Z,100858.41
2022-09-01T23:14:13.206Z,100861.16
2022-09-01T23:16:41.725Z,100865.06
2022-09-01T23:19:09.570Z,100867.06
2022-09-01T23:21:39.197Z,100861.69
2022-09-01T23:24:07.436Z,100859.72
2022-09-01T23:26:35.850Z,100861.09
2022-09-01T23:29:04.330Z,100870.78
2022-09-01T23:31:36.105Z,100868.44
2022-09-01T23:34:06.588Z,100860.91
2022-09-01T23:36:35.300Z,100867.09
2022-09-01T23:39:05.186Z,100863.75
2022-09-01T23:41:36.634Z,100851.13
2022-09-01T23:44:07.234Z,100852.66
2022-09-01T23:46:54.379Z,100849.09
2022-09-01T23:49:22.745Z,100857.81
2022-09-01T23:51:53.548Z,100847.41
2022-09-01T23:54:21.863Z,100858.53
2022-09-01T23:56:49.733Z,100843.50
2022-09-01T23:59:17.669Z,100848.06
